sensor_id;sensor_type;location;lat;lon;timestamp;P1;P2;P0
73687;PMS7003;62257;48.376;-4.378;2022-08-11T00:02:26;9.00;9.00;7.00
73687;PMS7003;62257;48.376;-4.378;2022-08-11T00:05:00;10.25;10.25;9.25
73687;PMS7003;62257;48.376;-4.378;2022-08-11T00:07:31;11.25;10.50;8.75
73687;PMS7003;62257;48.376;-4.378;2022-08-11T00:09:58;10.50;9.00;8.25
73687;PMS7003;62257;48.376;-4.378;2022-08-11T00:12:24;9.50;9.50;8.50
73687;PMS7003;62257;48.376;-4.378;2022-08-11T00:14:57;11.00;11.00;9.25
73687;PMS7003;62257;48.376;-4.378;2022-08-11T00:17:28;11.25;10.75;9.25
73687;PMS7003;62257;48.376;-4.378;2022-08-11T00:20:02;10.25;10.25;8.75
73687;PMS7003;62257;48.376;-4.378;2022-08-11T00:22:31;11.50;10.75;9.50
73687;PMS7003;62257;48.376;-4.378;2022-08-11T00:24:58;7.75;7.25;6.50
73687;PMS7003;62257;48.376;-4.378;2022-08-11T00:27:33;12.00;11.25;10.25
73687;PMS7003;62257;48.376;-4.378;2022-08-11T00:30:00;13.75;13.50;9.75
73687;PMS7003;62257;48.376;-4.378;2022-08-11T00:32:26;12.75;11.75;9.50
73687;PMS7003;62257;48.376;-4.378;2022-08-11T00:34:54;14.50;12.25;10.50
73687;PMS7003;62257;48.376;-4.378;2022-08-11T00:37:22;17.25;15.00;12.25
73687;PMS7003;62257;48.376;-4.378;2022-08-11T00:39:50;14.25;14.25;11.00
73687;PMS7003;62257;48.376;-4.378;2022-08-11T00:45:00;11.75;11.25;10.25
73687;PMS7003;62257;48.376;-4.378;2022-08-11T00:47:55;12.25;12.25;11.00
73687;PMS7003;62257;48.376;-4.378;2022-08-11T01:02:09;17.75;14.75;12.25
73687;PMS7003;62257;48.376;-4.378;2022-08-11T01:32:14;14.00;11.75;10.50
73687;PMS7003;62257;48.376;-4.378;2022-08-11T01:46:53;15.25;12.50;10.25
73687;PMS7003;62257;48.376;-4.378;2022-08-11T01:52:28;17.00;13.25;10.50
73687;PMS7003;62257;48.376;-4.378;2022-08-11T01:55:12;18.00;15.25;11.25
73687;PMS7003;62257;48.376;-4.378;2022-08-11T01:58:02;11.75;11.00;9.50
73687;PMS7003;62257;48.376;-4.378;2022-08-11T02:00:30;11.00;9.75;8.75
73687;PMS7003;62257;48.376;-4.378;2022-08-11T02:03:17;11.00;10.00;9.50
73687;PMS7003;62257;48.376;-4.378;2022-08-11T02:08:58;11.75;11.25;10.25
73687;PMS7003;62257;48.376;-4.378;2022-08-11T02:11:42;12.25;10.50;8.75
73687;PMS7003;62257;48.376;-4.378;2022-08-11T02:36:54;17.25;15.00;12.50
73687;PMS7003;62257;48.376;-4.378;2022-08-11T02:39:27;16.25;13.25;10.75
73687;PMS7003;62257;48.376;-4.378;2022-08-11T02:42:09;17.25;15.00;11.25
73687;PMS7003;62257;48.376;-4.378;2022-08-11T03:01:44;19.25;16.50;12.00
73687;PMS7003;62257;48.376;-4.378;2022-08-11T03:04:19;22.25;20.00;16.75
73687;PMS7003;62257;48.376;-4.378;2022-08-11T03:06:51;18.00;18.00;16.00
73687;PMS7003;62257;48.376;-4.378;2022-08-11T03:12:15;21.25;19.25;13.75
73687;PMS7003;62257;48.376;-4.378;2022-08-11T03:18:02;18.75;15.00;12.50
73687;PMS7003;62257;48.376;-4.378;2022-08-11T03:20:44;13.25;13.25;12.25
73687;PMS7003;62257;48.376;-4.378;2022-08-11T03:23:39;20.75;19.00;15.00
73687;PMS7003;62257;48.376;-4.378;2022-08-11T03:26:14;22.00;18.00;14.25
73687;PMS7003;62257;48.376;-4.378;2022-08-11T03:31:40;18.50;16.75;13.00
73687;PMS7003;62257;48.376;-4.378;2022-08-11T03:34:17;19.25;19.25;14.25
73687;PMS7003;62257;48.376;-4.378;2022-08-11T03:37:10;19.50;19.50;15.25
73687;PMS7003;62257;48.376;-4.378;2022-08-11T03:40:23;21.75;19.00;16.00
73687;PMS7003;62257;48.376;-4.378;2022-08-11T03:43:33;18.25;18.25;15.25
73687;PMS7003;62257;48.376;-4.378;2022-08-11T03:46:15;17.50;17.00;14.25
73687;PMS7003;62257;48.376;-4.378;2022-08-11T03:49:04;19.50;16.50;13.50
73687;PMS7003;62257;48.376;-4.378;2022-08-11T03:57:20;16.50;16.25;12.25
73687;PMS7003;62257;48.376;-4.378;2022-08-11T04:02:48;19.00;15.75;12.50
73687;PMS7003;62257;48.376;-4.378;2022-08-11T04:05:48;17.00;15.50;13.50
73687;PMS7003;62257;48.376;-4.378;2022-08-11T04:08:43;17.50;17.50;12.75
73687;PMS7003;62257;48.376;-4.378;2022-08-11T04:22:50;16.00;15.75;13.75
73687;PMS7003;62257;48.376;-4.378;2022-08-11T04:28:41;18.00;17.25;12.00
73687;PMS7003;62257;48.376;-4.378;2022-08-11T04:36:50;19.25;17.50;14.00
73687;PMS7003;62257;48.376;-4.378;2022-08-11T04:51:07;21.50;17.00;14.50
73687;PMS7003;62257;48.376;-4.378;2022-08-11T04:54:04;20.00;17.00;14.50
73687;PMS7003;62257;48.376;-4.378;2022-08-11T04:57:07;20.50;19.00;13.50
73687;PMS7003;62257;48.376;-4.378;2022-08-11T05:00:09;15.25;14.75;13.00
73687;PMS7003;62257;48.376;-4.378;2022-08-11T05:14:50;13.50;11.50;7.75
73687;PMS7003;62257;48.376;-4.378;2022-08-11T05:17:37;16.00;14.50;11.00
73687;PMS7003;62257;48.376;-4.378;2022-08-11T05:20:39;17.00;16.25;12.25
73687;PMS7003;62257;48.376;-4.378;2022-08-11T05:23:30;18.25;17.25;14.00
73687;PMS7003;62257;48.376;-4.378;2022-08-11T05:26:16;18.25;17.00;14.00
73687;PMS7003;62257;48.376;-4.378;2022-08-11T05:29:03;18.00;16.75;11.75
73687;PMS7003;62257;48.376;-4.378;2022-08-11T05:32:09;16.50;13.75;10.75
73687;PMS7003;62257;48.376;-4.378;2022-08-11T05:34:58;19.25;16.50;13.00
73687;PMS7003;62257;48.376;-4.378;2022-08-11T05:39:59;19.00;15.50;11.75
73687;PMS7003;62257;48.376;-4.378;2022-08-11T05:42:51;19.00;16.75;12.25
73687;PMS7003;62257;48.376;-4.378;2022-08-11T05:45:39;18.00;16.00;11.50
73687;PMS7003;62257;48.376;-4.378;2022-08-11T05:48:27;17.00;15.25;13.00
73687;PMS7003;62257;48.376;-4.378;2022-08-11T05:51:17;15.25;13.75;11.00
73687;PMS7003;62257;48.376;-4.378;2022-08-11T05:54:02;17.00;17.00;13.75
73687;PMS7003;62257;48.376;-4.378;2022-08-11T05:56:52;16.50;15.50;12.25
73687;PMS7003;62257;48.376;-4.378;2022-08-11T05:59:20;15.50;14.25;12.25
73687;PMS7003;62257;48.376;-4.378;2022-08-11T06:01:47;13.75;13.75;11.50
73687;PMS7003;62257;48.376;-4.378;2022-08-11T06:04:18;17.75;15.75;11.25
73687;PMS7003;62257;48.376;-4.378;2022-08-11T06:06:50;17.00;16.25;11.50
73687;PMS7003;62257;48.376;-4.378;2022-08-11T06:11:53;13.50;13.50;12.25
73687;PMS7003;62257;48.376;-4.378;2022-08-11T06:14:26;16.25;16.25;13.25
73687;PMS7003;62257;48.376;-4.378;2022-08-11T06:16:54;14.50;14.50;12.25
73687;PMS7003;62257;48.376;-4.378;2022-08-11T06:19:29;14.75;13.00;10.75
73687;PMS7003;62257;48.376;-4.378;2022-08-11T06:21:57;17.75;17.00;12.00
73687;PMS7003;62257;48.376;-4.378;2022-08-11T06:24:25;16.50;12.25;11.75
73687;PMS7003;62257;48.376;-4.378;2022-08-11T06:26:53;16.25;14.00;11.25
73687;PMS7003;62257;48.376;-4.378;2022-08-11T06:29:20;11.50;11.25;10.50
73687;PMS7003;62257;48.376;-4.378;2022-08-11T06:31:56;18.00;14.50;11.75
73687;PMS7003;62257;48.376;-4.378;2022-08-11T06:34:31;17.75;16.75;12.00
73687;PMS7003;62257;48.376;-4.378;2022-08-11T06:39:40;15.50;13.75;12.00
73687;PMS7003;62257;48.376;-4.378;2022-08-11T06:42:19;13.75;13.75;11.50
73687;PMS7003;62257;48.376;-4.378;2022-08-11T06:45:26;16.75;14.25;12.25
73687;PMS7003;62257;48.376;-4.378;2022-08-11T06:47:55;18.50;15.00;13.25
73687;PMS7003;62257;48.376;-4.378;2022-08-11T06:50:24;18.75;16.25;13.25
73687;PMS7003;62257;48.376;-4.378;2022-08-11T06:53:09;14.50;13.25;10.75
73687;PMS7003;62257;48.376;-4.378;2022-08-11T06:55:38;19.00;16.50;13.25
73687;PMS7003;62257;48.376;-4.378;2022-08-11T06:58:27;13.75;13.50;12.00
73687;PMS7003;62257;48.376;-4.378;2022-08-11T07:01:14;12.50;12.50;11.00
73687;PMS7003;62257;48.376;-4.378;2022-08-11T07:03:46;15.50;14.00;11.25
73687;PMS7003;62257;48.376;-4.378;2022-08-11T07:06:23;14.25;13.75;11.50
73687;PMS7003;62257;48.376;-4.378;2022-08-11T07:09:32;16.00;16.00;12.75
73687;PMS7003;62257;48.376;-4.378;2022-08-11T07:15:32;16.75;15.00;12.00
73687;PMS7003;62257;48.376;-4.378;2022-08-11T07:18:07;15.00;13.75;11.50
73687;PMS7003;62257;48.376;-4.378;2022-08-11T07:20:54;11.75;11.75;11.00
73687;PMS7003;62257;48.376;-4.378;2022-08-11T07:23:51;13.75;11.25;8.50
73687;PMS7003;62257;48.376;-4.378;2022-08-11T07:26:37;16.25;12.50;10.25
73687;PMS7003;62257;48.376;-4.378;2022-08-11T07:29:26;11.50;11.25;10.25
73687;PMS7003;62257;48.376;-4.378;2022-08-11T07:31:55;14.00;12.25;11.00
73687;PMS7003;62257;48.376;-4.378;2022-08-11T07:34:32;15.00;13.75;11.75
73687;PMS7003;62257;48.376;-4.378;2022-08-11T07:37:03;16.00;10.50;8.00
73687;PMS7003;62257;48.376;-4.378;2022-08-11T07:39:35;15.75;14.50;12.50
73687;PMS7003;62257;48.376;-4.378;2022-08-11T07:42:05;15.75;14.75;12.50
73687;PMS7003;62257;48.376;-4.378;2022-08-11T07:44:33;13.75;13.00;10.75
73687;PMS7003;62257;48.376;-4.378;2022-08-11T07:47:23;14.25;12.00;10.25
73687;PMS7003;62257;48.376;-4.378;2022-08-11T07:50:09;11.75;11.50;9.75
73687;PMS7003;62257;48.376;-4.378;2022-08-11T07:52:54;13.00;11.00;9.25
73687;PMS7003;62257;48.376;-4.378;2022-08-11T07:55:21;13.00;12.50;9.75
73687;PMS7003;62257;48.376;-4.378;2022-08-11T07:57:49;14.00;13.00;10.75
73687;PMS7003;62257;48.376;-4.378;2022-08-11T08:00:56;12.75;12.00;9.75
73687;PMS7003;62257;48.376;-4.378;2022-08-11T08:03:40;17.50;14.00;10.00
73687;PMS7003;62257;48.376;-4.378;2022-08-11T08:06:26;13.00;12.00;10.50
73687;PMS7003;62257;48.376;-4.378;2022-08-11T08:09:12;11.50;11.50;9.50
73687;PMS7003;62257;48.376;-4.378;2022-08-11T08:12:00;13.25;13.25;11.50
73687;PMS7003;62257;48.376;-4.378;2022-08-11T08:14:46;12.25;12.00;9.50
73687;PMS7003;62257;48.376;-4.378;2022-08-11T08:17:30;14.25;13.00;10.00
73687;PMS7003;62257;48.376;-4.378;2022-08-11T08:20:17;11.75;11.75;10.00
73687;PMS7003;62257;48.376;-4.378;2022-08-11T08:22:51;12.25;12.25;10.25
73687;PMS7003;62257;48.376;-4.378;2022-08-11T08:25:22;12.00;11.00;9.00
73687;PMS7003;62257;48.376;-4.378;2022-08-11T08:27:51;8.75;8.75;7.25
73687;PMS7003;62257;48.376;-4.378;2022-08-11T08:30:18;11.50;11.50;9.50
73687;PMS7003;62257;48.376;-4.378;2022-08-11T08:33:03;11.50;11.50;9.00
73687;PMS7003;62257;48.376;-4.378;2022-08-11T08:35:29;14.00;11.25;10.00
73687;PMS7003;62257;48.376;-4.378;2022-08-11T08:37:57;9.25;9.25;8.25
73687;PMS7003;62257;48.376;-4.378;2022-08-11T08:40:26;12.00;11.25;9.50
73687;PMS7003;62257;48.376;-4.378;2022-08-11T08:42:52;11.50;9.75;8.00
73687;PMS7003;62257;48.376;-4.378;2022-08-11T08:45:23;12.00;12.00;10.00
73687;PMS7003;62257;48.376;-4.378;2022-08-11T08:47:57;11.00;11.00;9.25
73687;PMS7003;62257;48.376;-4.378;2022-08-11T08:50:26;12.25;10.75;9.00
73687;PMS7003;62257;48.376;-4.378;2022-08-11T08:53:17;13.25;12.00;10.75
73687;PMS7003;62257;48.376;-4.378;2022-08-11T08:55:45;11.00;11.00;9.25
73687;PMS7003;62257;48.376;-4.378;2022-08-11T08:58:14;15.25;13.00;10.00
73687;PMS7003;62257;48.376;-4.378;2022-08-11T09:00:44;13.50;11.25;9.50
73687;PMS7003;62257;48.376;-4.378;2022-08-11T09:03:11;12.75;12.00;11.00
73687;PMS7003;62257;48.376;-4.378;2022-08-11T09:05:38;12.00;12.00;10.00
73687;PMS7003;62257;48.376;-4.378;2022-08-11T09:08:05;17.25;13.00;10.00
73687;PMS7003;62257;48.376;-4.378;2022-08-11T09:10:31;12.75;11.00;9.50
73687;PMS7003;62257;48.376;-4.378;2022-08-11T09:12:58;12.00;12.00;9.50
73687;PMS7003;62257;48.376;-4.378;2022-08-11T09:15:25;12.00;10.25;9.75
73687;PMS7003;62257;48.376;-4.378;2022-08-11T09:17:52;12.00;12.00;9.50
73687;PMS7003;62257;48.376;-4.378;2022-08-11T09:20:28;14.75;13.25;11.25
73687;PMS7003;62257;48.376;-4.378;2022-08-11T09:23:02;12.50;12.50;10.25
73687;PMS7003;62257;48.376;-4.378;2022-08-11T09:25:55;13.25;12.25;11.00
73687;PMS7003;62257;48.376;-4.378;2022-08-11T09:28:42;12.50;11.75;10.75
73687;PMS7003;62257;48.376;-4.378;2022-08-11T09:31:09;13.00;13.00;11.00
73687;PMS7003;62257;48.376;-4.378;2022-08-11T09:33:38;12.25;12.25;10.25
73687;PMS7003;62257;48.376;-4.378;2022-08-11T09:36:06;17.00;13.50;10.75
73687;PMS7003;62257;48.376;-4.378;2022-08-11T09:38:51;12.50;12.50;11.00
73687;PMS7003;62257;48.376;-4.378;2022-08-11T09:41:36;11.00;11.00;9.00
73687;PMS7003;62257;48.376;-4.378;2022-08-11T09:44:04;10.75;10.75;9.25
73687;PMS7003;62257;48.376;-4.378;2022-08-11T09:46:50;13.00;12.25;10.50
73687;PMS7003;62257;48.376;-4.378;2022-08-11T09:49:18;10.75;10.75;10.25
73687;PMS7003;62257;48.376;-4.378;2022-08-11T09:51:45;11.75;11.00;9.25
73687;PMS7003;62257;48.376;-4.378;2022-08-11T09:54:11;9.25;8.25;7.75
73687;PMS7003;62257;48.376;-4.378;2022-08-11T09:56:37;9.50;9.50;7.75
73687;PMS7003;62257;48.376;-4.378;2022-08-11T09:59:21;9.50;8.50;7.25
73687;PMS7003;62257;48.376;-4.378;2022-08-11T10:01:56;8.75;8.75;7.00
73687;PMS7003;62257;48.376;-4.378;2022-08-11T10:04:25;9.75;7.00;6.00
73687;PMS7003;62257;48.376;-4.378;2022-08-11T10:07:05;9.25;8.00;7.00
73687;PMS7003;62257;48.376;-4.378;2022-08-11T10:09:40;7.00;7.00;6.00
73687;PMS7003;62257;48.376;-4.378;2022-08-11T10:12:22;8.00;8.00;7.25
73687;PMS7003;62257;48.376;-4.378;2022-08-11T10:14:54;6.75;6.25;6.00
73687;PMS7003;62257;48.376;-4.378;2022-08-11T10:17:42;10.00;9.00;8.25
73687;PMS7003;62257;48.376;-4.378;2022-08-11T10:20:31;7.50;7.50;6.50
73687;PMS7003;62257;48.376;-4.378;2022-08-11T10:22:58;10.00;7.00;6.25
73687;PMS7003;62257;48.376;-4.378;2022-08-11T10:25:44;8.00;8.00;7.00
73687;PMS7003;62257;48.376;-4.378;2022-08-11T10:28:29;8.50;7.75;7.25
73687;PMS7003;62257;48.376;-4.378;2022-08-11T10:30:56;9.75;9.25;8.00
73687;PMS7003;62257;48.376;-4.378;2022-08-11T10:33:41;9.25;8.00;7.00
73687;PMS7003;62257;48.376;-4.378;2022-08-11T10:36:24;10.00;10.00;8.00
73687;PMS7003;62257;48.376;-4.378;2022-08-11T10:38:51;10.00;10.00;9.00
73687;PMS7003;62257;48.376;-4.378;2022-08-11T10:41:17;12.00;10.00;7.00
73687;PMS7003;62257;48.376;-4.378;2022-08-11T10:44:02;6.75;6.75;6.25
73687;PMS7003;62257;48.376;-4.378;2022-08-11T10:46:30;9.50;9.00;8.00
73687;PMS7003;62257;48.376;-4.378;2022-08-11T10:49:14;8.00;8.00;8.00
73687;PMS7003;62257;48.376;-4.378;2022-08-11T10:51:41;5.75;5.75;4.00
73687;PMS7003;62257;48.376;-4.378;2022-08-11T10:54:26;9.75;9.25;8.50
73687;PMS7003;62257;48.376;-4.378;2022-08-11T10:57:10;9.25;9.00;8.00
73687;PMS7003;62257;48.376;-4.378;2022-08-11T10:59:58;9.00;8.00;7.00
73687;PMS7003;62257;48.376;-4.378;2022-08-11T11:02:24;9.00;9.00;7.25
73687;PMS7003;62257;48.376;-4.378;2022-08-11T11:05:07;3.75;3.75;3.00
73687;PMS7003;62257;48.376;-4.378;2022-08-11T11:08:16;10.75;9.00;8.25
73687;PMS7003;62257;48.376;-4.378;2022-08-11T11:10:53;9.00;9.00;8.00
73687;PMS7003;62257;48.376;-4.378;2022-08-11T11:13:20;8.00;8.00;6.75
73687;PMS7003;62257;48.376;-4.378;2022-08-11T11:16:06;8.25;8.25;7.50
73687;PMS7003;62257;48.376;-4.378;2022-08-11T11:18:52;7.25;7.25;6.25
73687;PMS7003;62257;48.376;-4.378;2022-08-11T11:21:19;6.75;6.00;5.75
73687;PMS7003;62257;48.376;-4.378;2022-08-11T11:32:09;7.25;7.00;6.00
73687;PMS7003;62257;48.376;-4.378;2022-08-11T11:37:21;10.25;9.00;7.00
73687;PMS7003;62257;48.376;-4.378;2022-08-11T11:39:47;14.00;11.00;9.00
73687;PMS7003;62257;48.376;-4.378;2022-08-11T11:42:13;10.25;10.25;9.00
73687;PMS7003;62257;48.376;-4.378;2022-08-11T11:44:42;10.00;9.50;8.50
73687;PMS7003;62257;48.376;-4.378;2022-08-11T11:47:10;8.00;8.00;7.00
73687;PMS7003;62257;48.376;-4.378;2022-08-11T11:49:36;10.00;8.00;6.00
73687;PMS7003;62257;48.376;-4.378;2022-08-11T11:52:05;10.25;8.75;8.00
73687;PMS7003;62257;48.376;-4.378;2022-08-11T11:54:32;8.00;8.00;7.00
73687;PMS7003;62257;48.376;-4.378;2022-08-11T11:57:00;6.50;6.50;6.25
73687;PMS7003;62257;48.376;-4.378;2022-08-11T11:59:46;10.00;8.50;8.00
73687;PMS7003;62257;48.376;-4.378;2022-08-11T12:02:32;12.00;9.50;8.25
73687;PMS7003;62257;48.376;-4.378;2022-08-11T12:05:00;8.67;8.67;8.00
73687;PMS7003;62257;48.376;-4.378;2022-08-11T12:07:26;8.00;8.00;7.00
73687;PMS7003;62257;48.376;-4.378;2022-08-11T12:10:12;10.50;10.00;8.00
73687;PMS7003;62257;48.376;-4.378;2022-08-11T12:12:38;10.50;10.00;8.50
73687;PMS7003;62257;48.376;-4.378;2022-08-11T12:15:22;9.00;9.00;8.00
73687;PMS7003;62257;48.376;-4.378;2022-08-11T12:17:48;9.75;9.75;9.00
73687;PMS7003;62257;48.376;-4.378;2022-08-11T12:20:16;8.25;8.25;7.50
73687;PMS7003;62257;48.376;-4.378;2022-08-11T12:22:45;9.50;9.00;8.00
73687;PMS7003;62257;48.376;-4.378;2022-08-11T12:25:29;9.50;8.00;7.00
73687;PMS7003;62257;48.376;-4.378;2022-08-11T12:28:13;9.25;9.25;8.25
73687;PMS7003;62257;48.376;-4.378;2022-08-11T12:30:39;8.75;8.75;7.25
73687;PMS7003;62257;48.376;-4.378;2022-08-11T12:33:06;9.50;9.50;8.50
73687;PMS7003;62257;48.376;-4.378;2022-08-11T12:35:32;10.25;8.25;7.00
73687;PMS7003;62257;48.376;-4.378;2022-08-11T12:38:00;12.25;11.00;9.00
73687;PMS7003;62257;48.376;-4.378;2022-08-11T12:40:27;11.75;9.75;8.75
73687;PMS7003;62257;48.376;-4.378;2022-08-11T12:43:32;9.75;9.00;8.00
73687;PMS7003;62257;48.376;-4.378;2022-08-11T12:46:24;9.50;9.50;8.50
73687;PMS7003;62257;48.376;-4.378;2022-08-11T12:48:56;8.25;7.50;7.00
73687;PMS7003;62257;48.376;-4.378;2022-08-11T12:51:45;11.00;8.75;8.00
73687;PMS7003;62257;48.376;-4.378;2022-08-11T12:57:02;6.50;6.50;6.00
73687;PMS7003;62257;48.376;-4.378;2022-08-11T12:59:50;11.00;8.50;7.25
73687;PMS7003;62257;48.376;-4.378;2022-08-11T13:02:35;10.25;9.25;8.50
73687;PMS7003;62257;48.376;-4.378;2022-08-11T13:05:19;7.75;7.75;7.00
73687;PMS7003;62257;48.376;-4.378;2022-08-11T13:07:46;10.00;7.25;7.00
73687;PMS7003;62257;48.376;-4.378;2022-08-11T13:10:14;11.25;9.25;8.25
73687;PMS7003;62257;48.376;-4.378;2022-08-11T13:13:04;4.75;3.25;3.00
73687;PMS7003;62257;48.376;-4.378;2022-08-11T13:15:32;12.00;11.00;7.75
73687;PMS7003;62257;48.376;-4.378;2022-08-11T13:18:00;9.00;8.75;8.00
73687;PMS7003;62257;48.376;-4.378;2022-08-11T13:20:28;11.50;10.00;8.25
73687;PMS7003;62257;48.376;-4.378;2022-08-11T13:22:54;5.00;5.00;4.00
73687;PMS7003;62257;48.376;-4.378;2022-08-11T13:25:22;9.50;9.25;8.00
73687;PMS7003;62257;48.376;-4.378;2022-08-11T13:27:52;9.50;9.00;8.50
73687;PMS7003;62257;48.376;-4.378;2022-08-11T13:30:20;11.25;11.00;9.25
73687;PMS7003;62257;48.376;-4.378;2022-08-11T13:33:07;12.00;12.00;9.75
73687;PMS7003;62257;48.376;-4.378;2022-08-11T13:35:34;9.00;9.00;8.25
73687;PMS7003;62257;48.376;-4.378;2022-08-11T13:38:00;13.00;8.25;7.75
73687;PMS7003;62257;48.376;-4.378;2022-08-11T13:40:27;12.75;12.75;10.00
73687;PMS7003;62257;48.376;-4.378;2022-08-11T13:42:54;12.50;12.25;9.50
73687;PMS7003;62257;48.376;-4.378;2022-08-11T13:45:22;9.50;9.50;8.25
73687;PMS7003;62257;48.376;-4.378;2022-08-11T13:47:56;9.25;9.25;8.00
73687;PMS7003;62257;48.376;-4.378;2022-08-11T13:50:23;11.00;9.25;8.25
73687;PMS7003;62257;48.376;-4.378;2022-08-11T13:53:10;11.00;10.75;8.75
73687;PMS7003;62257;48.376;-4.378;2022-08-11T13:55:39;11.00;10.75;10.00
73687;PMS7003;62257;48.376;-4.378;2022-08-11T13:58:06;10.25;10.25;9.00
73687;PMS7003;62257;48.376;-4.378;2022-08-11T14:00:37;11.50;11.50;9.75
73687;PMS7003;62257;48.376;-4.378;2022-08-11T14:03:07;7.00;7.00;7.00
73687;PMS7003;62257;48.376;-4.378;2022-08-11T14:05:39;14.75;12.50;9.75
73687;PMS7003;62257;48.376;-4.378;2022-08-11T14:08:09;10.25;10.00;8.50
73687;PMS7003;62257;48.376;-4.378;2022-08-11T14:10:37;10.00;10.00;9.75
73687;PMS7003;62257;48.376;-4.378;2022-08-11T14:13:13;12.50;11.25;8.25
73687;PMS7003;62257;48.376;-4.378;2022-08-11T14:16:04;11.00;10.25;9.25
73687;PMS7003;62257;48.376;-4.378;2022-08-11T14:18:33;12.00;11.75;10.50
73687;PMS7003;62257;48.376;-4.378;2022-08-11T14:21:02;11.25;11.00;9.25
73687;PMS7003;62257;48.376;-4.378;2022-08-11T14:23:49;11.50;10.75;9.25
73687;PMS7003;62257;48.376;-4.378;2022-08-11T14:26:19;11.00;10.50;9.00
73687;PMS7003;62257;48.376;-4.378;2022-08-11T14:28:56;11.00;11.00;10.00
73687;PMS7003;62257;48.376;-4.378;2022-08-11T14:31:26;9.50;9.50;8.50
73687;PMS7003;62257;48.376;-4.378;2022-08-11T14:33:54;12.50;11.25;10.00
73687;PMS7003;62257;48.376;-4.378;2022-08-11T14:36:24;10.75;10.75;9.00
73687;PMS7003;62257;48.376;-4.378;2022-08-11T14:38:52;9.00;9.00;8.00
73687;PMS7003;62257;48.376;-4.378;2022-08-11T14:41:19;11.00;9.75;8.25
73687;PMS7003;62257;48.376;-4.378;2022-08-11T14:44:05;11.50;8.50;7.75
73687;PMS7003;62257;48.376;-4.378;2022-08-11T14:46:53;10.25;10.25;9.25
73687;PMS7003;62257;48.376;-4.378;2022-08-11T14:49:30;10.00;9.00;8.25
73687;PMS7003;62257;48.376;-4.378;2022-08-11T14:52:01;10.00;10.00;8.50
73687;PMS7003;62257;48.376;-4.378;2022-08-11T14:54:39;10.75;10.00;8.75
73687;PMS7003;62257;48.376;-4.378;2022-08-11T14:57:25;11.75;11.00;10.00
73687;PMS7003;62257;48.376;-4.378;2022-08-11T14:59:53;15.00;11.75;11.25
73687;PMS7003;62257;48.376;-4.378;2022-08-11T15:02:22;11.75;11.75;9.50
73687;PMS7003;62257;48.376;-4.378;2022-08-11T15:05:06;10.00;9.00;8.00
73687;PMS7003;62257;48.376;-4.378;2022-08-11T15:07:32;12.50;10.75;9.50
73687;PMS7003;62257;48.376;-4.378;2022-08-11T15:10:00;9.00;9.00;8.25
73687;PMS7003;62257;48.376;-4.378;2022-08-11T15:12:28;10.00;9.75;9.00
73687;PMS7003;62257;48.376;-4.378;2022-08-11T15:14:55;13.00;11.50;9.25
73687;PMS7003;62257;48.376;-4.378;2022-08-11T15:17:40;10.75;10.75;9.00
73687;PMS7003;62257;48.376;-4.378;2022-08-11T15:20:09;10.75;10.75;9.50
73687;PMS7003;62257;48.376;-4.378;2022-08-11T15:22:56;11.75;9.75;8.75
73687;PMS7003;62257;48.376;-4.378;2022-08-11T15:25:42;11.75;10.00;9.00
73687;PMS7003;62257;48.376;-4.378;2022-08-11T15:28:14;12.00;10.25;8.00
73687;PMS7003;62257;48.376;-4.378;2022-08-11T15:31:00;10.75;10.00;8.00
73687;PMS7003;62257;48.376;-4.378;2022-08-11T15:33:46;11.00;10.25;9.25
73687;PMS7003;62257;48.376;-4.378;2022-08-11T15:36:35;11.25;9.25;8.50
73687;PMS7003;62257;48.376;-4.378;2022-08-11T15:39:31;13.25;11.25;9.50
73687;PMS7003;62257;48.376;-4.378;2022-08-11T15:42:08;11.75;10.00;8.50
73687;PMS7003;62257;48.376;-4.378;2022-08-11T15:44:58;11.50;9.00;7.75
73687;PMS7003;62257;48.376;-4.378;2022-08-11T15:47:47;11.25;11.25;9.50
73687;PMS7003;62257;48.376;-4.378;2022-08-11T15:50:21;8.75;8.25;7.00
73687;PMS7003;62257;48.376;-4.378;2022-08-11T15:55:57;11.00;10.25;8.25
73687;PMS7003;62257;48.376;-4.378;2022-08-11T15:58:25;13.25;13.25;11.25
73687;PMS7003;62257;48.376;-4.378;2022-08-11T16:01:15;11.75;11.00;9.25
73687;PMS7003;62257;48.376;-4.378;2022-08-11T16:04:06;11.00;11.00;10.00
73687;PMS7003;62257;48.376;-4.378;2022-08-11T16:13:18;11.00;11.00;9.25
73687;PMS7003;62257;48.376;-4.378;2022-08-11T16:15:48;9.50;9.00;8.25
73687;PMS7003;62257;48.376;-4.378;2022-08-11T16:18:40;12.00;10.25;9.00
73687;PMS7003;62257;48.376;-4.378;2022-08-11T16:21:18;13.25;12.50;9.50
73687;PMS7003;62257;48.376;-4.378;2022-08-11T16:23:47;12.25;12.25;9.50
73687;PMS7003;62257;48.376;-4.378;2022-08-11T16:26:17;7.25;7.25;7.00
73687;PMS7003;62257;48.376;-4.378;2022-08-11T16:28:48;11.75;10.00;8.00
73687;PMS7003;62257;48.376;-4.378;2022-08-11T16:31:16;10.00;10.00;9.00
73687;PMS7003;62257;48.376;-4.378;2022-08-11T16:33:43;10.50;10.50;9.75
73687;PMS7003;62257;48.376;-4.378;2022-08-11T16:36:11;10.25;10.25;9.00
73687;PMS7003;62257;48.376;-4.378;2022-08-11T16:38:57;9.50;9.50;7.75
73687;PMS7003;62257;48.376;-4.378;2022-08-11T16:41:25;10.00;10.00;8.25
73687;PMS7003;62257;48.376;-4.378;2022-08-11T16:44:12;9.00;8.75;8.00
73687;PMS7003;62257;48.376;-4.378;2022-08-11T16:46:57;13.00;11.25;9.75
73687;PMS7003;62257;48.376;-4.378;2022-08-11T16:49:34;10.50;10.50;9.00
73687;PMS7003;62257;48.376;-4.378;2022-08-11T16:52:02;12.25;10.75;9.25
73687;PMS7003;62257;48.376;-4.378;2022-08-11T16:54:32;9.00;9.00;8.00
73687;PMS7003;62257;48.376;-4.378;2022-08-11T16:56:59;10.75;10.25;9.00
73687;PMS7003;62257;48.376;-4.378;2022-08-11T16:59:47;10.50;10.50;9.75
73687;PMS7003;62257;48.376;-4.378;2022-08-11T17:02:17;14.25;12.50;10.25
73687;PMS7003;62257;48.376;-4.378;2022-08-11T17:05:06;12.25;11.00;9.75
73687;PMS7003;62257;48.376;-4.378;2022-08-11T17:07:54;12.00;11.25;10.25
73687;PMS7003;62257;48.376;-4.378;2022-08-11T17:10:43;10.00;9.25;8.75
73687;PMS7003;62257;48.376;-4.378;2022-08-11T17:16:22;9.50;9.50;8.50
73687;PMS7003;62257;48.376;-4.378;2022-08-11T17:24:15;7.00;7.00;5.50
73687;PMS7003;62257;48.376;-4.378;2022-08-11T17:26:41;10.00;9.50;9.00
73687;PMS7003;62257;48.376;-4.378;2022-08-11T17:31:54;9.25;9.25;8.25
73687;PMS7003;62257;48.376;-4.378;2022-08-11T17:34:41;9.25;9.25;8.00
73687;PMS7003;62257;48.376;-4.378;2022-08-11T17:37:26;12.00;11.00;9.50
73687;PMS7003;62257;48.376;-4.378;2022-08-11T17:39:57;10.00;10.00;8.75
73687;PMS7003;62257;48.376;-4.378;2022-08-11T17:42:26;10.25;9.25;8.25
73687;PMS7003;62257;48.376;-4.378;2022-08-11T17:45:14;7.00;6.50;6.25
73687;PMS7003;62257;48.376;-4.378;2022-08-11T17:48:02;8.25;8.25;7.00
73687;PMS7003;62257;48.376;-4.378;2022-08-11T17:50:48;10.00;10.00;8.75
73687;PMS7003;62257;48.376;-4.378;2022-08-11T17:53:16;11.25;9.75;8.00
73687;PMS7003;62257;48.376;-4.378;2022-08-11T17:56:02;9.50;9.50;8.00
73687;PMS7003;62257;48.376;-4.378;2022-08-11T17:58:57;8.25;8.25;8.00
73687;PMS7003;62257;48.376;-4.378;2022-08-11T18:01:42;8.25;8.25;7.00
73687;PMS7003;62257;48.376;-4.378;2022-08-11T18:04:09;9.25;8.25;6.25
73687;PMS7003;62257;48.376;-4.378;2022-08-11T18:06:36;9.00;9.00;7.50
73687;PMS7003;62257;48.376;-4.378;2022-08-11T18:09:06;9.50;9.50;8.00
73687;PMS7003;62257;48.376;-4.378;2022-08-11T18:11:52;11.75;8.75;7.75